Time;durP1;ratioP1;P1;durP2;ratioP2;P2;SDS_P1;SDS_P2;PMS_P1;PMS_P2;Temp;Humidity;BMP_temperature;BMP_pressure;BME280_temperature;BME280_humidity;BME280_pressure;Samples;Min_cycle;Max_cycle;Signal;HPM_P1;HPM_P2
2023/08/03 00:01:51;;;;;;;;;;;;;;;15.70;100.00;98937.63;4983585;28;21254;-60
2023/08/03 00:04:18;;;;;;;;;;;;;;;15.77;100.00;98939.16;4986547;28;20430;-60
2023/08/03 00:06:44;;;;;;;;;;;;;;;15.75;100.00;98932.22;4981770;28;19918;-60
2023/08/03 00:09:09;;;;;;;;;;;;;;;15.76;100.00;98942.69;4982923;28;19921;-60
2023/08/03 00:11:35;;;;;;;;;;;;;;;15.77;100.00;98939.16;4985315;28;19925;-60
2023/08/03 00:14:00;;;;;;;;;;;;;;;15.84;100.00;98942.50;4982575;28;19917;-60
2023/08/03 00:16:25;;;;;;;;;;;;;;;15.81;100.00;98940.84;4982644;28;19914;-60
2023/08/03 00:18:50;;;;;;;;;;;;;;;15.89;100.00;98953.75;4985686;28;19984;-59
2023/08/03 00:21:16;;;;;;;;;;;;;;;15.78;100.00;98956.66;4983818;28;20383;-60
2023/08/03 00:23:41;;;;;;;;;;;;;;;15.85;100.00;98948.63;4986175;28;20008;-60
2023/08/03 00:26:06;;;;;;;;;;;;;;;15.80;100.00;98957.50;4980970;28;19936;-60
2023/08/03 00:28:32;;;;;;;;;;;;;;;15.82;100.00;98955.66;4988557;28;19914;-60
2023/08/03 00:30:57;;;;;;;;;;;;;;;15.82;100.00;98963.53;4983358;28;19918;-60
2023/08/03 00:33:22;;;;;;;;;;;;;;;15.94;100.00;98962.34;4978186;28;19937;-60
2023/08/03 00:35:47;;;;;;;;;;;;;;;16.03;100.00;98970.84;4985751;28;19914;-60
2023/08/03 00:38:12;;;;;;;;;;;;;;;15.95;100.00;98974.56;4988954;28;19921;-60
2023/08/03 00:40:38;;;;;;;;;;;;;;;15.93;100.00;98983.38;4979207;28;19960;-60
2023/08/03 00:43:04;;;;;;;;;;;;;;;15.92;100.00;98998.31;4976563;28;19921;-60
2023/08/03 00:45:29;;;;;;;;;;;;;;;15.93;100.00;99000.03;4986877;28;20356;-60
2023/08/03 00:47:55;;;;;;;;;;;;;;;15.93;100.00;99004.41;4985090;28;19924;-60
2023/08/03 00:50:20;;;;;;;;;;;;;;;15.89;100.00;99005.38;4987960;28;19925;-60
2023/08/03 00:52:45;;;;;;;;;;;;;;;16.07;100.00;99025.91;4984443;28;19917;-60
2023/08/03 00:55:10;;;;;;;;;;;;;;;16.00;100.00;99024.34;4986886;28;20034;-59
2023/08/03 00:57:35;;;;;;;;;;;;;;;16.13;100.00;99019.59;4982491;28;19921;-58
2023/08/03 01:00:01;;;;;;;;;;;;;;;15.98;100.00;99028.78;4990087;28;19917;-60
2023/08/03 01:02:26;;;;;;;;;;;;;;;16.05;100.00;99034.72;4981630;28;19914;-59
2023/08/03 01:04:51;;;;;;;;;;;;;;;15.97;100.00;99032.31;4986367;28;19917;-60
2023/08/03 01:07:17;;;;;;;;;;;;;;;15.93;100.00;99043.81;4986449;28;19932;-59
2023/08/03 01:09:42;;;;;;;;;;;;;;;15.92;100.00;99055.25;4985576;28;19957;-60
2023/08/03 01:12:07;;;;;;;;;;;;;;;15.84;100.00;99038.81;4981706;28;19992;-60
2023/08/03 01:14:33;;;;;;;;;;;;;;;15.99;100.00;99056.78;4988210;28;19914;-60
2023/08/03 01:16:58;;;;;;;;;;;;;;;15.90;100.00;99055.28;4988681;28;19952;-60
2023/08/03 01:19:23;;;;;;;;;;;;;;;15.86;100.00;99053.63;4990249;28;20016;-59
2023/08/03 01:21:49;;;;;;;;;;;;;;;15.86;100.00;99050.13;4988968;28;20304;-59
2023/08/03 01:24:14;;;;;;;;;;;;;;;15.93;100.00;99056.94;4984814;28;20001;-59
2023/08/03 01:26:40;;;;;;;;;;;;;;;15.85;100.00;99065.03;4984474;28;19936;-59
2023/08/03 01:29:05;;;;;;;;;;;;;;;15.95;100.00;99070.91;4986539;28;20399;-59
2023/08/03 01:31:31;;;;;;;;;;;;;;;15.97;100.00;99075.22;4987783;28;20296;-59
2023/08/03 01:33:57;;;;;;;;;;;;;;;15.92;100.00;99081.50;4988494;28;19965;-59
2023/08/03 01:36:22;;;;;;;;;;;;;;;15.92;100.00;99089.38;4990793;28;19920;-59
2023/08/03 01:38:52;;;;;;;;;;;;;;;15.93;100.00;99091.09;4984976;28;20296;-59
2023/08/03 01:41:18;;;;;;;;;;;;;;;16.04;100.00;99080.31;4991191;28;19962;-60
2023/08/03 01:43:43;;;;;;;;;;;;;;;16.14;100.00;99080.00;4985868;28;19953;-59
2023/08/03 01:46:08;;;;;;;;;;;;;;;15.98;100.00;99089.22;4974815;28;19925;-59
2023/08/03 01:48:33;;;;;;;;;;;;;;;15.95;100.00;99084.91;4985066;28;20434;-59
2023/08/03 01:50:58;;;;;;;;;;;;;;;15.92;100.00;99086.75;4980155;28;20247;-60
2023/08/03 01:53:24;;;;;;;;;;;;;;;15.92;100.00;99089.38;4989925;28;19924;-59
2023/08/03 01:55:49;;;;;;;;;;;;;;;15.90;100.00;99089.44;4983245;28;19933;-58
2023/08/03 01:58:14;;;;;;;;;;;;;;;15.91;100.00;99079.78;4984100;28;20012;-59
2023/08/03 02:00:40;;;;;;;;;;;;;;;15.94;100.00;99082.31;4989296;28;20330;-59
2023/08/03 02:03:05;;;;;;;;;;;;;;;15.89;100.00;99092.94;4986881;28;19996;-59
2023/08/03 02:05:30;;;;;;;;;;;;;;;15.89;100.00;99092.06;4983306;28;20444;-60
2023/08/03 02:07:55;;;;;;;;;;;;;;;15.92;100.00;99076.25;4984510;28;19920;-59
2023/08/03 02:10:22;;;;;;;;;;;;;;;15.87;100.00;99099.13;4985842;28;20001;-59
2023/08/03 02:12:47;;;;;;;;;;;;;;;16.05;100.00;99093.41;4988459;28;19914;-59
2023/08/03 02:15:13;;;;;;;;;;;;;;;15.89;100.00;99098.19;4984348;28;19917;-59
2023/08/03 02:17:39;;;;;;;;;;;;;;;15.89;100.00;99105.19;4982671;28;19968;-59
2023/08/03 02:20:04;;;;;;;;;;;;;;;15.91;100.00;99095.53;4986587;28;20373;-60
2023/08/03 02:22:29;;;;;;;;;;;;;;;15.85;100.00;99098.31;4991074;28;19948;-59
2023/08/03 02:24:55;;;;;;;;;;;;;;;15.84;100.00;99097.44;4987814;28;19963;-59
2023/08/03 02:27:20;;;;;;;;;;;;;;;15.85;100.00;99088.66;4985136;28;19945;-59
2023/08/03 02:29:45;;;;;;;;;;;;;;;15.85;100.00;99087.81;4983453;28;19968;-59
2023/08/03 02:32:11;;;;;;;;;;;;;;;15.80;100.00;99088.81;4980443;28;20017;-59
2023/08/03 02:34:36;;;;;;;;;;;;;;;15.84;100.00;99079.06;4987779;28;19925;-60
2023/08/03 02:37:01;;;;;;;;;;;;;;;15.86;100.00;99092.16;4981227;28;19914;-59
2023/08/03 02:39:26;;;;;;;;;;;;;;;15.81;100.00;99085.28;4984090;28;20387;-59
2023/08/03 02:41:57;;;;;;;;;;;;;;;15.77;100.00;99087.97;4984681;28;21142;-61
2023/08/03 02:44:23;;;;;;;;;;;;;;;15.80;100.00;99083.53;4982643;28;19917;-59
2023/08/03 02:46:48;;;;;;;;;;;;;;;15.80;100.00;99074.78;4984543;28;20020;-59
2023/08/03 02:49:13;;;;;;;;;;;;;;;15.88;100.00;99100.88;4986373;28;19941;-60
2023/08/03 02:51:39;;;;;;;;;;;;;;;15.85;100.00;99069.44;4977864;28;19918;-59
2023/08/03 02:54:04;;;;;;;;;;;;;;;15.78;100.00;99082.72;4988270;28;20779;-59
2023/08/03 02:56:29;;;;;;;;;;;;;;;15.75;100.00;99088.00;4987439;28;19914;-59
2023/08/03 02:58:54;;;;;;;;;;;;;;;15.77;100.00;99087.97;4984468;28;19926;-59
2023/08/03 03:01:20;;;;;;;;;;;;;;;15.77;100.00;99078.34;4990004;28;19914;-59
2023/08/03 03:03:45;;;;;;;;;;;;;;;15.82;100.00;99089.59;4983110;28;20148;-59
2023/08/03 03:06:10;;;;;;;;;;;;;;;15.81;100.00;99095.78;4981689;28;20249;-59
2023/08/03 03:08:35;;;;;;;;;;;;;;;15.84;100.00;99101.84;4986144;28;19914;-60
2023/08/03 03:11:00;;;;;;;;;;;;;;;15.78;100.00;99101.09;4976867;28;19981;-59
2023/08/03 03:13:26;;;;;;;;;;;;;;;15.78;100.00;99101.09;4987982;28;20336;-59
2023/08/03 03:15:51;;;;;;;;;;;;;;;15.78;100.00;99110.72;4976281;28;20296;-59
2023/08/03 03:18:16;;;;;;;;;;;;;;;15.75;100.00;99116.03;4979207;28;19924;-59
2023/08/03 03:20:41;;;;;;;;;;;;;;;15.74;100.00;99119.56;4977871;28;19910;-59
2023/08/03 03:23:06;;;;;;;;;;;;;;;15.72;100.00;99113.50;4982767;28;19925;-59
2023/08/03 03:25:32;;;;;;;;;;;;;;;15.76;100.00;99102.03;4980171;28;20407;-60
2023/08/03 03:28:04;;;;;;;;;;;;;;;15.73;100.00;99117.81;4982112;28;20423;-59
2023/08/03 03:30:29;;;;;;;;;;;;;;;15.72;100.00;99124.00;4975799;28;19922;-59
2023/08/03 03:32:54;;;;;;;;;;;;;;;15.69;100.00;99106.56;4981383;28;20430;-59
2023/08/03 03:35:19;;;;;;;;;;;;;;;15.74;100.00;99120.44;4981148;28;19913;-59
2023/08/03 03:37:44;;;;;;;;;;;;;;;15.67;100.00;99133.75;4987479;28;19918;-59
2023/08/03 03:40:10;;;;;;;;;;;;;;;15.77;100.00;99138.75;4991809;28;19961;-59
2023/08/03 03:42:35;;;;;;;;;;;;;;;15.77;100.00;99161.50;4986730;28;19917;-59
2023/08/03 03:45:01;;;;;;;;;;;;;;;15.72;100.00;99164.25;4983539;28;19914;-59
2023/08/03 03:47:26;;;;;;;;;;;;;;;15.75;100.00;99172.03;4972335;28;19914;-59
2023/08/03 03:49:51;;;;;;;;;;;;;;;15.70;100.00;99166.06;4989087;28;19922;-59
2023/08/03 03:52:16;;;;;;;;;;;;;;;15.90;100.00;99177.84;4978536;28;19921;-60
2023/08/03 03:54:42;;;;;;;;;;;;;;;15.78;100.00;99190.38;4977210;28;19914;-59
2023/08/03 03:57:07;;;;;;;;;;;;;;;15.84;100.00;99191.13;4972129;28;19980;-59
2023/08/03 03:59:32;;;;;;;;;;;;;;;15.75;100.00;99194.81;4978948;28;20340;-59
2023/08/03 04:01:57;;;;;;;;;;;;;;;15.74;100.00;99190.47;4988461;28;20393;-59
2023/08/03 04:04:22;;;;;;;;;;;;;;;15.71;100.00;99194.03;4975397;28;20365;-58
2023/08/03 04:06:48;;;;;;;;;;;;;;;15.62;100.00;99195.09;4972179;28;19953;-59
2023/08/03 04:09:13;;;;;;;;;;;;;;;15.61;100.00;99184.63;4986595;28;19921;-57
2023/08/03 04:11:38;;;;;;;;;;;;;;;15.64;100.00;99192.44;4980953;28;19961;-59
2023/08/03 04:14:04;;;;;;;;;;;;;;;15.69;100.00;99190.59;4980215;28;20288;-59
2023/08/03 04:16:29;;;;;;;;;;;;;;;15.62;100.00;99199.50;4980095;28;19924;-59
2023/08/03 04:18:54;;;;;;;;;;;;;;;15.61;100.00;99196.03;4987548;28;20335;-59
2023/08/03 04:21:19;;;;;;;;;;;;;;;15.58;100.00;99197.84;4983814;28;19914;-59
2023/08/03 04:23:44;;;;;;;;;;;;;;;15.66;100.00;99206.41;4986998;28;20004;-59
2023/08/03 04:26:10;;;;;;;;;;;;;;;15.64;100.00;99203.81;4983227;28;19914;-59
2023/08/03 04:28:35;;;;;;;;;;;;;;;15.59;100.00;99226.69;4986683;28;20384;-58
2023/08/03 04:31:01;;;;;;;;;;;;;;;15.70;100.00;99231.69;4983364;28;19921;-59
2023/08/03 04:33:26;;;;;;;;;;;;;;;15.62;100.00;99244.13;4985479;28;19918;-59
2023/08/03 04:35:51;;;;;;;;;;;;;;;15.80;100.00;99246.38;4988370;28;19925;-59
2023/08/03 04:38:16;;;;;;;;;;;;;;;15.71;100.00;99248.31;4984362;28;20000;-58
2023/08/03 04:40:41;;;;;;;;;;;;;;;15.73;100.00;99254.38;4974733;28;20335;-59
2023/08/03 04:43:06;;;;;;;;;;;;;;;15.65;100.00;99258.03;4981286;28;19917;-59
2023/08/03 04:45:32;;;;;;;;;;;;;;;15.84;100.00;99251.56;4986146;28;19996;-59
2023/08/03 04:47:57;;;;;;;;;;;;;;;15.71;100.00;99266.69;4984685;28;19920;-59
2023/08/03 04:50:22;;;;;;;;;;;;;;;15.61;100.00;99266.91;4989426;28;19956;-59
2023/08/03 04:52:47;;;;;;;;;;;;;;;15.54;100.00;99270.56;4988545;28;20055;-59
2023/08/03 04:55:12;;;;;;;;;;;;;;;15.58;100.00;99268.72;4988854;28;19917;-59
2023/08/03 04:57:38;;;;;;;;;;;;;;;15.68;100.00;99265.00;4983343;28;19924;-59
2023/08/03 05:00:03;;;;;;;;;;;;;;;15.58;100.00;99273.97;4986181;28;20398;-59
2023/08/03 05:02:28;;;;;;;;;;;;;;;15.56;100.00;99276.63;4985419;28;19925;-59
2023/08/03 05:04:54;;;;;;;;;;;;;;;15.69;100.00;99277.22;4989561;28;19936;-59
2023/08/03 05:07:19;;;;;;;;;;;;;;;15.64;100.00;99281.72;4985685;28;19910;-59
2023/08/03 05:09:44;;;;;;;;;;;;;;;15.69;100.00;99279.84;4992312;28;19918;-59
2023/08/03 05:12:09;;;;;;;;;;;;;;;15.68;100.00;99299.13;4989092;28;19929;-59
2023/08/03 05:14:35;;;;;;;;;;;;;;;15.88;100.00;99292.59;4991101;28;19913;-59
2023/08/03 05:17:00;;;;;;;;;;;;;;;15.81;100.00;99302.38;4981243;28;19914;-58
2023/08/03 05:19:25;;;;;;;;;;;;;;;15.71;100.00;99303.47;4987832;28;19915;-59
2023/08/03 05:21:50;;;;;;;;;;;;;;;15.73;100.00;99306.91;4986496;28;19920;-59
2023/08/03 05:24:18;;;;;;;;;;;;;;;15.76;100.00;99312.97;4987213;28;19906;-59
2023/08/03 05:26:44;;;;;;;;;;;;;;;15.88;100.00;99332.00;4979666;28;19910;-59
2023/08/03 05:29:09;;;;;;;;;;;;;;;15.93;100.00;99319.63;4984434;28;20395;-58
2023/08/03 05:31:34;;;;;;;;;;;;;;;15.82;100.00;99330.38;4989653;28;19913;-59
2023/08/03 05:34:00;;;;;;;;;;;;;;;15.82;100.00;99338.25;4979548;28;19921;-59
2023/08/03 05:36:25;;;;;;;;;;;;;;;15.75;100.00;99334.84;4984408;28;20503;-58
2023/08/03 05:38:53;;;;;;;;;;;;;;;15.90;100.00;99332.81;4988751;28;19992;-59
2023/08/03 05:41:20;;;;;;;;;;;;;;;15.67;100.00;99343.81;4984999;28;20279;-59
2023/08/03 05:43:46;;;;;;;;;;;;;;;15.60;100.00;99336.06;4989445;28;19929;-59
2023/08/03 05:46:12;;;;;;;;;;;;;;;15.67;100.00;99352.56;4982434;28;19913;-59
2023/08/03 05:48:38;;;;;;;;;;;;;;;15.66;100.00;99348.19;4989091;28;20037;-59
2023/08/03 05:51:03;;;;;;;;;;;;;;;15.68;100.00;99346.41;4983308;28;19938;-59
2023/08/03 05:53:28;;;;;;;;;;;;;;;15.70;100.00;99360.38;4980910;28;19920;-59
2023/08/03 05:55:54;;;;;;;;;;;;;;;15.81;100.00;99368.03;4988675;28;19913;-59
2023/08/03 05:58:19;;;;;;;;;;;;;;;16.01;100.00;99377.25;4992274;28;19914;-58
2023/08/03 06:00:48;;;;;;;;;;;;;;;15.79;100.00;99375.09;4989922;28;19921;-59
2023/08/03 06:03:14;;;;;;;;;;;;;;;15.88;100.00;99381.91;4984659;28;19918;-59
2023/08/03 06:05:42;;;;;;;;;;;;;;;15.91;100.00;99380.06;4976476;28;19940;-59
2023/08/03 06:08:23;;;;;;;;;;;;;;;15.84;100.00;99390.75;4984535;28;20004;-59
2023/08/03 06:10:53;;;;;;;;;;;;;;;15.78;100.00;99382.09;4985219;28;19969;-59
2023/08/03 06:13:20;;;;;;;;;;;;;;;15.78;100.00;99394.34;4989554;28;19976;-59
2023/08/03 06:15:46;;;;;;;;;;;;;;;15.74;100.00;99408.44;4982623;28;20116;-60
2023/08/03 06:18:14;;;;;;;;;;;;;;;15.75;100.00;99397.88;4985521;28;20344;-59
2023/08/03 06:20:41;;;;;;;;;;;;;;;15.80;100.00;99408.31;4985774;28;19980;-59
2023/08/03 06:23:10;;;;;;;;;;;;;;;15.80;100.00;99414.47;4988291;28;19917;-59
2023/08/03 06:25:36;;;;;;;;;;;;;;;15.76;100.00;99418.00;4983501;28;19913;-59
2023/08/03 06:28:02;;;;;;;;;;;;;;;15.78;100.00;99415.34;4982696;28;19918;-59
2023/08/03 06:30:27;;;;;;;;;;;;;;;15.92;100.00;99413.34;4979696;28;19918;-59
2023/08/03 06:32:54;;;;;;;;;;;;;;;15.87;100.00;99416.94;4985650;28;19983;-59
2023/08/03 06:35:24;;;;;;;;;;;;;;;15.96;100.00;99414.13;4988629;28;19914;-59
2023/08/03 06:37:51;;;;;;;;;;;;;;;15.89;100.00;99423.91;4988300;28;19920;-59
2023/08/03 06:40:16;;;;;;;;;;;;;;;15.76;100.00;99423.25;4983989;28;19920;-59
2023/08/03 06:42:42;;;;;;;;;;;;;;;15.78;100.00;99426.75;4983182;28;19914;-59
2023/08/03 06:45:07;;;;;;;;;;;;;;;15.79;100.00;99440.75;4978387;28;19917;-59
2023/08/03 06:47:32;;;;;;;;;;;;;;;15.77;100.00;99435.50;4989259;28;19918;-59
2023/08/03 06:49:58;;;;;;;;;;;;;;;15.97;100.00;99434.25;4985737;28;20308;-58
2023/08/03 06:52:25;;;;;;;;;;;;;;;15.96;100.00;99445.63;4977565;28;19924;-59
2023/08/03 06:54:50;;;;;;;;;;;;;;;15.89;100.00;99450.19;4988089;28;19922;-59
2023/08/03 06:57:15;;;;;;;;;;;;;;;15.94;100.00;99461.44;4988747;28;20311;-60
2023/08/03 06:59:40;;;;;;;;;;;;;;;15.82;100.00;99459.06;4987301;28;19936;-59
2023/08/03 07:02:05;;;;;;;;;;;;;;;16.10;100.00;99456.72;4989672;28;19949;-59
2023/08/03 07:04:31;;;;;;;;;;;;;;;16.09;100.00;99469.91;4987039;28;19914;-59
2023/08/03 07:06:56;;;;;;;;;;;;;;;16.09;100.00;99476.03;4980674;28;19913;-60
2023/08/03 07:09:21;;;;;;;;;;;;;;;16.21;100.00;99476.69;4985154;28;19923;-58
2023/08/03 07:11:46;;;;;;;;;;;;;;;16.06;100.00;99473.47;4988228;28;19945;-59
2023/08/03 07:14:11;;;;;;;;;;;;;;;16.19;100.00;99488.97;4983303;28;19918;-59
2023/08/03 07:16:38;;;;;;;;;;;;;;;16.19;100.00;99494.22;4981027;28;19920;-59
2023/08/03 07:19:06;;;;;;;;;;;;;;;16.19;100.00;99500.34;4982576;28;20265;-59
2023/08/03 07:21:31;;;;;;;;;;;;;;;16.26;100.00;99490.56;4979554;28;20368;-59
2023/08/03 07:23:56;;;;;;;;;;;;;;;16.30;100.00;99498.34;4983154;28;20003;-59
2023/08/03 07:26:23;;;;;;;;;;;;;;;16.26;100.00;99495.81;4980657;28;19917;-59
2023/08/03 07:28:49;;;;;;;;;;;;;;;16.43;100.00;99488.44;4985999;28;20020;-60
2023/08/03 07:31:14;;;;;;;;;;;;;;;16.33;100.00;99500.06;4982340;28;20059;-59
2023/08/03 07:33:39;;;;;;;;;;;;;;;16.36;100.00;99510.50;4981820;28;20012;-59
2023/08/03 07:36:05;;;;;;;;;;;;;;;16.52;100.00;99509.28;4984770;28;20360;-59
2023/08/03 07:38:30;;;;;;;;;;;;;;;16.64;100.00;99504.63;4989206;28;19913;-59
2023/08/03 07:40:56;;;;;;;;;;;;;;;16.55;100.00;99512.72;4985610;28;20067;-59
2023/08/03 07:43:21;;;;;;;;;;;;;;;16.50;100.00;99507.56;4981274;28;19925;-59
2023/08/03 07:45:46;;;;;;;;;;;;;;;16.49;100.00;99514.56;4971228;28;19910;-59
2023/08/03 07:48:11;;;;;;;;;;;;;;;16.71;100.00;99503.56;4976160;28;19917;-59
2023/08/03 07:50:36;;;;;;;;;;;;;;;16.59;100.00;99522.28;4983432;28;19921;-59
2023/08/03 07:53:02;;;;;;;;;;;;;;;16.61;100.00;99539.75;4985333;28;20343;-59
2023/08/03 07:55:27;;;;;;;;;;;;;;;16.49;100.00;99530.34;4983203;28;19924;-59
2023/08/03 07:57:52;;;;;;;;;;;;;;;16.54;100.00;99535.53;4989433;28;20012;-59
2023/08/03 08:00:17;;;;;;;;;;;;;;;16.48;100.00;99552.31;4987615;28;20001;-59
2023/08/03 08:02:42;;;;;;;;;;;;;;;16.44;100.00;99555.91;4987650;28;19922;-59
2023/08/03 08:05:08;;;;;;;;;;;;;;;16.48;100.00;99554.94;4983932;28;19920;-58
2023/08/03 08:07:33;;;;;;;;;;;;;;;16.27;100.00;99569.38;4976627;28;19993;-59
2023/08/03 08:09:58;;;;;;;;;;;;;;;16.27;100.00;99572.00;4982196;28;19930;-59
2023/08/03 08:12:23;;;;;;;;;;;;;;;16.25;100.00;99567.69;4986142;28;20288;-59
2023/08/03 08:14:48;;;;;;;;;;;;;;;16.13;100.00;99574.94;4982282;28;19949;-59
2023/08/03 08:17:14;;;;;;;;;;;;;;;16.09;100.00;99569.75;4988496;28;19964;-59
2023/08/03 08:19:41;;;;;;;;;;;;;;;16.30;100.00;99589.50;4980386;28;19942;-59
2023/08/03 08:22:11;;;;;;;;;;;;;;;16.19;100.00;99600.19;4983227;28;19942;-60
2023/08/03 08:24:36;;;;;;;;;;;;;;;16.24;100.00;99585.22;4994833;28;19910;-59
2023/08/03 08:27:02;;;;;;;;;;;;;;;16.20;100.00;99603.72;4985927;28;19944;-59
2023/08/03 08:29:27;;;;;;;;;;;;;;;16.15;100.00;99607.28;4987540;28;19918;-59
2023/08/03 08:31:52;;;;;;;;;;;;;;;16.20;100.00;99611.59;4983864;28;20510;-60
2023/08/03 08:34:17;;;;;;;;;;;;;;;16.28;100.00;99621.06;4985939;28;20305;-59
2023/08/03 08:36:43;;;;;;;;;;;;;;;16.43;100.00;99617.25;4993598;28;19913;-59
2023/08/03 08:39:08;;;;;;;;;;;;;;;16.29;100.00;99628.06;4980487;28;19906;-58
2023/08/03 08:41:37;;;;;;;;;;;;;;;16.38;100.00;99634.03;4984538;28;20444;-57
2023/08/03 08:44:02;;;;;;;;;;;;;;;16.25;100.00;99646.53;4988244;28;19968;-58
2023/08/03 08:46:27;;;;;;;;;;;;;;;16.24;100.00;99634.31;4979564;28;19917;-58
2023/08/03 08:48:53;;;;;;;;;;;;;;;16.29;100.00;99642.94;4985571;28;19996;-58
2023/08/03 08:51:19;;;;;;;;;;;;;;;16.19;100.00;99651.91;4980167;28;19964;-57
2023/08/03 08:53:44;;;;;;;;;;;;;;;16.18;100.00;99645.78;4988125;28;19960;-58
2023/08/03 08:56:09;;;;;;;;;;;;;;;16.40;100.00;99651.50;4981097;28;20488;-58
2023/08/03 08:58:34;;;;;;;;;;;;;;;16.34;100.00;99654.25;4987582;28;20199;-58
2023/08/03 09:01:03;;;;;;;;;;;;;;;16.35;100.00;99663.84;4978832;28;20304;-58
2023/08/03 09:03:44;;;;;;;;;;;;;;;16.41;100.00;99679.53;4988617;28;20280;-58
2023/08/03 09:06:09;;;;;;;;;;;;;;;16.43;100.00;99680.34;4983927;28;19914;-58
2023/08/03 09:08:47;;;;;;;;;;;;;;;16.31;100.00;99684.09;4988948;28;19913;-58
2023/08/03 09:11:12;;;;;;;;;;;;;;;16.33;100.00;99694.56;4984991;28;19976;-58
2023/08/03 09:13:37;;;;;;;;;;;;;;;16.33;100.00;99702.47;4987342;28;19917;-58
2023/08/03 09:16:03;;;;;;;;;;;;;;;16.44;100.00;99708.41;4983310;28;19921;-58
2023/08/03 09:18:30;;;;;;;;;;;;;;;16.19;100.00;99704.47;4994307;28;19918;-57
2023/08/03 09:21:15;;;;;;;;;;;;;;;16.25;100.00;99712.25;4988207;28;20292;-58
2023/08/03 09:23:40;;;;;;;;;;;;;;;16.23;100.00;99716.66;4979976;28;19914;-58
2023/08/03 09:26:06;;;;;;;;;;;;;;;16.32;100.00;99724.38;4989809;28;19913;-58
2023/08/03 09:28:35;;;;;;;;;;;;;;;16.31;100.00;99726.16;4979748;28;19937;-58
2023/08/03 09:31:04;;;;;;;;;;;;;;;16.34;100.00;99741.00;4986270;28;19984;-58
2023/08/03 09:36:25;;;;;;;;;;;;;;;16.38;100.00;99745.31;4933100;29;19921;-58
2023/08/03 09:39:16;;;;;;;;;;;;;;;16.55;100.00;99749.41;4933401;29;20557;-58
2023/08/03 09:41:42;;;;;;;;;;;;;;;16.50;100.00;99752.97;4976303;28;19918;-58
2023/08/03 09:44:14;;;;;;;;;;;;;;;16.55;100.00;99765.16;4992282;28;19967;-58
2023/08/03 09:46:40;;;;;;;;;;;;;;;16.64;100.00;99765.00;4991732;28;19909;-58
2023/08/03 09:49:05;;;;;;;;;;;;;;;16.64;100.00;99778.13;4992732;28;19928;-58
2023/08/03 09:51:31;;;;;;;;;;;;;;;16.87;100.00;99782.97;4991639;28;19921;-59
2023/08/03 09:53:59;;;;;;;;;;;;;;;16.85;100.00;99780.38;4993406;28;19910;-58
2023/08/03 09:56:31;;;;;;;;;;;;;;;16.89;100.00;99785.59;4990779;28;20372;-58
2023/08/03 09:58:58;;;;;;;;;;;;;;;16.82;100.00;99790.94;4991747;28;19953;-58
2023/08/03 10:01:24;;;;;;;;;;;;;;;16.88;100.00;99805.78;4989949;28;19921;-58
2023/08/03 10:03:52;;;;;;;;;;;;;;;16.92;100.00;99799.56;4993095;28;19921;-58
2023/08/03 10:06:18;;;;;;;;;;;;;;;17.03;100.00;99802.88;4991636;28;19921;-58
2023/08/03 10:08:47;;;;;;;;;;;;;;;17.06;100.00;99814.22;4989701;28;19913;-58
2023/08/03 10:11:13;;;;;;;;;;;;;;;17.03;100.00;99816.03;4992160;28;19943;-58
2023/08/03 10:13:46;;;;;;;;;;;;;;;17.11;100.00;99821.13;4992236;28;20462;-58
2023/08/03 10:16:15;;;;;;;;;;;;;;;17.25;100.00;99827.88;4992931;28;20406;-58
2023/08/03 10:18:44;;;;;;;;;;;;;;;17.33;100.00;99825.97;4991676;28;20281;-56
2023/08/03 10:21:10;;;;;;;;;;;;;;;17.31;100.00;99826.00;4993592;28;19968;-56
2023/08/03 10:23:39;;;;;;;;;;;;;;;17.46;100.00;99830.06;4993476;28;20360;-56
2023/08/03 10:26:05;;;;;;;;;;;;;;;17.59;100.00;99827.19;4992528;28;19917;-56
2023/08/03 10:28:39;;;;;;;;;;;;;;;17.70;100.00;99828.69;4991036;28;19914;-57
2023/08/03 10:31:05;;;;;;;;;;;;;;;17.93;100.00;99831.72;4991220;28;19924;-57
2023/08/03 10:33:45;;;;;;;;;;;;;;;18.12;100.00;99838.31;4980492;28;19918;-57
2023/08/03 10:36:27;;;;;;;;;;;;;;;18.16;100.00;99831.19;4974497;28;20055;-56
2023/08/03 10:38:55;;;;;;;;;;;;;;;18.38;100.00;99842.09;4987790;28;20007;-57
2023/08/03 10:41:22;;;;;;;;;;;;;;;18.47;100.00;99833.94;4987666;28;20055;-56
2023/08/03 10:44:20;;;;;;;;;;;;;;;18.54;100.00;99850.50;4990194;28;19921;-57
2023/08/03 10:46:49;;;;;;;;;;;;;;;18.57;100.00;99845.97;4984406;28;19928;-56
2023/08/03 10:49:17;;;;;;;;;;;;;;;18.45;100.00;99859.50;4981780;28;20001;-57
2023/08/03 10:51:42;;;;;;;;;;;;;;;18.34;100.00;99862.38;4980303;28;20009;-57
2023/08/03 10:54:11;;;;;;;;;;;;;;;18.12;100.00;99862.03;4973093;28;20359;-56
2023/08/03 10:56:36;;;;;;;;;;;;;;;18.17;100.00;99862.78;4984695;28;19914;-54
2023/08/03 10:59:02;;;;;;;;;;;;;;;18.06;100.00;99870.06;4977338;28;20034;-57
2023/08/03 11:01:27;;;;;;;;;;;;;;;18.17;100.00;99873.31;4984283;28;20335;-57
2023/08/03 11:03:54;;;;;;;;;;;;;;;18.16;100.00;99874.25;4976928;28;20045;-57
2023/08/03 11:06:19;;;;;;;;;;;;;;;18.15;100.00;99875.16;4980106;28;20404;-56
2023/08/03 11:08:44;;;;;;;;;;;;;;;18.20;100.00;99881.16;4987063;28;19919;-57
2023/08/03 11:11:16;;;;;;;;;;;;;;;18.18;100.00;99882.97;4981251;28;19917;-56
2023/08/03 11:13:44;;;;;;;;;;;;;;;18.25;100.00;99918.84;4985238;28;19957;-56
2023/08/03 11:16:13;;;;;;;;;;;;;;;18.10;100.00;99899.88;4976128;28;19936;-56
2023/08/03 11:18:43;;;;;;;;;;;;;;;18.10;100.00;99899.88;4974536;28;19914;-57
2023/08/03 11:21:09;;;;;;;;;;;;;;;18.17;100.00;99912.88;4972822;28;20045;-56
2023/08/03 11:23:35;;;;;;;;;;;;;;;18.14;100.00;99926.13;4978039;28;19996;-57
2023/08/03 11:26:06;;;;;;;;;;;;;;;17.96;100.00;99918.63;4972611;28;20283;-57
2023/08/03 11:28:37;;;;;;;;;;;;;;;17.79;100.00;99922.47;4983414;28;19921;-56
2023/08/03 11:31:03;;;;;;;;;;;;;;;17.62;100.00;99929.84;4978262;28;19944;-56
2023/08/03 11:33:34;;;;;;;;;;;;;;;17.82;100.00;99937.34;4974840;28;20359;-56
2023/08/03 11:35:59;;;;;;;;;;;;;;;17.49;100.00;99939.75;4981739;28;20343;-56
2023/08/03 11:38:24;;;;;;;;;;;;;;;17.55;100.00;99937.88;4976125;28;20372;-56
2023/08/03 11:40:49;;;;;;;;;;;;;;;17.49;100.00;99953.78;4972540;28;20261;-56
2023/08/03 11:43:15;;;;;;;;;;;;;;;17.47;100.00;99965.28;4972914;28;19960;-56
2023/08/03 11:45:42;;;;;;;;;;;;;;;17.58;100.00;99973.81;4972394;28;19960;-56
2023/08/03 11:48:08;;;;;;;;;;;;;;;17.29;100.00;99979.63;4984932;28;19913;-56
2023/08/03 11:50:33;;;;;;;;;;;;;;;17.31;100.00;99977.84;4979834;28;19918;-57
2023/08/03 11:52:59;;;;;;;;;;;;;;;17.26;100.00;99988.44;4990707;28;20339;-56
2023/08/03 11:55:25;;;;;;;;;;;;;;;17.38;100.00;99987.38;4986995;28;19913;-56
2023/08/03 11:58:10;;;;;;;;;;;;;;;17.53;100.00;99999.38;4979248;28;20001;-56
2023/08/03 12:00:36;;;;;;;;;;;;;;;17.57;100.00;100001.06;4980430;28;20352;-56
2023/08/03 12:03:01;;;;;;;;;;;;;;;17.69;100.00;100010.50;4984288;28;19921;-56
2023/08/03 12:05:26;;;;;;;;;;;;;;;17.69;100.00;100021.03;4980450;28;19925;-56
2023/08/03 12:07:57;;;;;;;;;;;;;;;17.62;100.00;100024.69;4983061;28;19917;-56
2023/08/03 12:10:25;;;;;;;;;;;;;;;17.67;100.00;100038.63;4986090;28;20432;-57
2023/08/03 12:12:50;;;;;;;;;;;;;;;17.60;100.00;100047.53;4982382;28;19913;-56
2023/08/03 12:15:16;;;;;;;;;;;;;;;17.66;100.00;100048.31;4987884;28;19910;-56
2023/08/03 12:20:44;;;;;;;;;;;;;;;17.50;100.00;100068.78;4983198;28;20310;-57
2023/08/03 12:23:14;;;;;;;;;;;;;;;17.62;100.00;100069.47;4991411;28;20382;-56
2023/08/03 12:25:48;;;;;;;;;;;;;;;17.59;100.00;100082.72;4990411;28;19914;-56
2023/08/03 12:28:14;;;;;;;;;;;;;;;17.41;100.00;100097.03;4991445;28;19964;-57
2023/08/03 12:30:40;;;;;;;;;;;;;;;17.23;100.00;100106.97;4986550;28;19961;-56
2023/08/03 12:33:06;;;;;;;;;;;;;;;17.07;100.00;100116.03;4988840;28;19913;-57
2023/08/03 12:35:31;;;;;;;;;;;;;;;16.97;100.00;100128.44;4987864;28;19968;-56
2023/08/03 12:37:57;;;;;;;;;;;;;;;16.83;100.00;100123.34;4979805;28;19913;-56